createdAt,value
2022-10-10T00:01:10.020Z,2.83
2022-10-10T00:03:36.643Z,2.87
2022-10-10T00:06:03.299Z,2.90
2022-10-10T00:08:29.908Z,2.90
2022-10-10T00:10:56.512Z,3.17
2022-10-10T00:13:23.232Z,2.70
2022-10-10T00:15:49.856Z,3.20
2022-10-10T00:18:16.640Z,2.70
2022-10-10T00:20:43.267Z,2.97
2022-10-10T00:23:09.921Z,3.07
2022-10-10T00:25:37.450Z,2.97
2022-10-10T00:28:05.197Z,3.13
2022-10-10T00:30:31.909Z,3.10
2022-10-10T00:32:59.526Z,2.93
2022-10-10T00:35:26.844Z,2.80
2022-10-10T00:37:53.501Z,3.20
2022-10-10T00:40:20.396Z,2.97
2022-10-10T00:42:47.299Z,2.73
2022-10-10T00:45:33.397Z,3.20
2022-10-10T00:48:10.124Z,3.00
2022-10-10T00:50:43.967Z,3.00
2022-10-10T00:53:12.089Z,3.10
2022-10-10T00:55:38.925Z,3.10
2022-10-10T00:58:07.217Z,3.10
2022-10-10T01:00:34.076Z,3.07
2022-10-10T01:03:00.757Z,3.00
2022-10-10T01:05:27.643Z,3.20
2022-10-10T01:07:54.769Z,3.10
2022-10-10T01:10:22.967Z,3.00
2022-10-10T01:13:09.336Z,3.20
2022-10-10T01:15:51.993Z,3.50
2022-10-10T01:18:24.500Z,2.80
2022-10-10T01:21:03.341Z,3.10
2022-10-10T01:23:38.547Z,3.40
2022-10-10T01:26:23.932Z,3.60
2022-10-10T01:29:00.786Z,2.93
2022-10-10T01:31:28.692Z,3.30
2022-10-10T01:34:15.448Z,3.20
2022-10-10T01:37:14.671Z,3.23
2022-10-10T01:39:59.168Z,3.20
2022-10-10T01:42:49.381Z,2.97
2022-10-10T01:45:16.345Z,3.50
2022-10-10T01:47:43.389Z,3.13
2022-10-10T01:50:13.455Z,3.10
2022-10-10T01:53:05.263Z,3.43
2022-10-10T01:56:02.904Z,3.50
2022-10-10T01:58:38.415Z,3.30
2022-10-10T02:01:14.299Z,2.80
2022-10-10T02:03:45.980Z,3.27
2022-10-10T02:06:43.086Z,3.70
2022-10-10T02:09:15.058Z,3.63
2022-10-10T02:11:42.539Z,3.20
2022-10-10T02:14:22.508Z,3.37
2022-10-10T02:16:51.448Z,3.40
2022-10-10T02:19:19.972Z,3.50
2022-10-10T02:21:48.385Z,3.30
2022-10-10T02:24:15.708Z,3.30
2022-10-10T02:26:45.359Z,3.33
2022-10-10T02:29:20.428Z,3.37
2022-10-10T02:31:56.613Z,3.30
2022-10-10T02:34:27.971Z,3.30
2022-10-10T02:37:02.680Z,3.03
2022-10-10T02:39:33.596Z,3.27
2022-10-10T02:42:00.305Z,2.80
2022-10-10T02:44:27.700Z,3.50
2022-10-10T02:46:54.589Z,3.53
2022-10-10T02:49:28.847Z,3.53
2022-10-10T02:51:55.659Z,3.67
2022-10-10T02:54:22.592Z,3.67
2022-10-10T02:56:49.368Z,3.40
2022-10-10T02:59:16.293Z,3.80
2022-10-10T03:01:43.462Z,3.63
2022-10-10T03:04:10.886Z,3.20
2022-10-10T03:06:37.671Z,3.47
2022-10-10T03:09:05.174Z,3.60
2022-10-10T03:11:32.589Z,3.57
2022-10-10T03:13:59.410Z,3.80
2022-10-10T03:16:26.262Z,3.80
2022-10-10T03:18:52.972Z,3.70
2022-10-10T03:21:19.833Z,3.47
2022-10-10T03:23:46.889Z,3.80
2022-10-10T03:26:15.253Z,3.80
2022-10-10T03:28:43.226Z,3.70
2022-10-10T03:31:09.980Z,3.90
2022-10-10T03:33:36.716Z,3.70
2022-10-10T03:36:03.832Z,3.20
2022-10-10T03:38:30.713Z,3.93
2022-10-10T03:40:57.399Z,3.60
2022-10-10T03:43:24.134Z,3.67
2022-10-10T03:45:50.816Z,3.80
2022-10-10T03:48:17.565Z,3.63
2022-10-10T03:50:44.251Z,4.00
2022-10-10T03:53:11.209Z,3.47
2022-10-10T03:55:40.803Z,3.43
2022-10-10T03:58:08.271Z,3.93
2022-10-10T04:00:35.289Z,3.70
2022-10-10T04:03:06.320Z,3.73
2022-10-10T04:05:34.961Z,3.67
2022-10-10T04:08:02.185Z,3.90
2022-10-10T04:10:29.171Z,3.60
2022-10-10T04:12:56.175Z,3.57
2022-10-10T04:15:23.315Z,3.80
2022-10-10T04:17:50.296Z,3.90
2022-10-10T04:20:18.072Z,4.17
2022-10-10T04:22:45.564Z,3.57
2022-10-10T04:25:12.434Z,3.77
2022-10-10T04:27:39.377Z,4.27
2022-10-10T04:30:06.846Z,3.93
2022-10-10T04:32:33.613Z,4.07
2022-10-10T04:35:00.467Z,3.80
2022-10-10T04:37:27.113Z,3.90
2022-10-10T04:39:54.233Z,3.70
2022-10-10T04:42:21.204Z,3.83
2022-10-10T04:44:47.949Z,3.60
2022-10-10T04:47:14.751Z,4.00
2022-10-10T04:49:44.337Z,3.90
2022-10-10T04:52:12.094Z,4.03
2022-10-10T04:54:38.843Z,4.30
2022-10-10T04:57:05.672Z,3.60
2022-10-10T04:59:32.481Z,4.07
2022-10-10T05:02:01.663Z,3.80
2022-10-10T05:04:29.511Z,3.80
2022-10-10T05:06:56.419Z,3.70
2022-10-10T05:09:23.246Z,3.87
2022-10-10T05:11:50.234Z,3.90
2022-10-10T05:14:16.892Z,3.80
2022-10-10T05:16:43.700Z,3.70
2022-10-10T05:19:10.415Z,3.87
2022-10-10T05:21:37.172Z,3.63
2022-10-10T05:24:04.281Z,3.90
2022-10-10T05:26:31.063Z,3.70
2022-10-10T05:28:57.822Z,4.13
2022-10-10T05:31:24.608Z,3.87
2022-10-10T05:33:51.311Z,4.17
2022-10-10T05:36:17.990Z,3.97
2022-10-10T05:38:44.800Z,3.53
2022-10-10T05:41:12.527Z,3.57
2022-10-10T05:43:39.420Z,3.47
2022-10-10T05:46:06.376Z,3.73
2022-10-10T05:48:33.936Z,3.40
2022-10-10T05:51:01.566Z,3.60
2022-10-10T05:53:30.259Z,3.50
2022-10-10T05:55:57.270Z,3.67
2022-10-10T05:58:24.533Z,3.67
2022-10-10T06:00:51.422Z,3.80
2022-10-10T06:03:18.591Z,3.40
2022-10-10T06:05:51.070Z,3.80
2022-10-10T06:08:18.332Z,3.43
2022-10-10T06:10:46.485Z,3.43
2022-10-10T06:13:20.329Z,3.70
2022-10-10T06:15:52.083Z,3.80
2022-10-10T06:18:18.891Z,3.33
2022-10-10T06:20:45.658Z,3.77
2022-10-10T06:23:12.659Z,3.40
2022-10-10T06:25:41.161Z,3.57
2022-10-10T06:28:08.947Z,3.53
2022-10-10T06:30:40.412Z,3.57
2022-10-10T06:33:07.700Z,3.47
2022-10-10T06:35:40.642Z,4.00
2022-10-10T06:38:07.656Z,3.47
2022-10-10T06:40:34.476Z,4.00
2022-10-10T06:43:01.383Z,3.50
2022-10-10T06:45:28.195Z,3.80
2022-10-10T06:47:55.520Z,3.73
2022-10-10T06:50:23.272Z,3.50
2022-10-10T06:52:50.367Z,3.40
2022-10-10T06:55:17.505Z,3.50
2022-10-10T06:57:44.543Z,3.90
2022-10-10T07:00:12.353Z,3.40
2022-10-10T07:02:40.942Z,4.10
2022-10-10T07:05:14.249Z,3.47
2022-10-10T07:07:41.032Z,3.70
2022-10-10T07:10:10.400Z,3.13
2022-10-10T07:12:52.254Z,3.30
2022-10-10T07:15:19.059Z,3.07
2022-10-10T07:17:49.273Z,3.63
2022-10-10T07:20:18.828Z,3.30
2022-10-10T07:22:45.769Z,3.77
2022-10-10T07:25:13.852Z,3.23
2022-10-10T07:27:40.651Z,3.53
2022-10-10T07:30:07.877Z,3.20
2022-10-10T07:32:34.658Z,3.70
2022-10-10T07:35:01.849Z,4.20
2022-10-10T07:37:30.360Z,4.23
2022-10-10T07:39:57.362Z,3.87
2022-10-10T07:42:24.240Z,3.97
2022-10-10T07:44:51.028Z,3.70
2022-10-10T07:47:17.793Z,3.97
2022-10-10T07:49:44.499Z,3.33
2022-10-10T07:52:11.259Z,3.73
2022-10-10T07:54:39.507Z,3.40
2022-10-10T07:57:06.324Z,4.10
2022-10-10T07:59:33.013Z,3.90
2022-10-10T08:01:59.982Z,3.60
2022-10-10T08:04:26.897Z,3.70
2022-10-10T08:06:53.773Z,4.20
2022-10-10T08:09:20.543Z,3.73
2022-10-10T08:11:47.373Z,4.07
2022-10-10T08:14:14.166Z,4.50
2022-10-10T08:16:40.936Z,4.13
2022-10-10T08:19:07.909Z,4.00
2022-10-10T08:21:36.287Z,4.80
2022-10-10T08:24:03.267Z,4.67
2022-10-10T08:26:30.118Z,4.63
2022-10-10T08:28:56.942Z,4.63
2022-10-10T08:31:23.957Z,4.50
2022-10-10T08:33:51.785Z,4.40
2022-10-10T08:36:21.979Z,4.63
2022-10-10T08:38:49.044Z,4.53
2022-10-10T08:41:33.960Z,4.13
2022-10-10T08:44:45.743Z,4.27
2022-10-10T08:47:15.914Z,4.77
2022-10-10T08:49:44.761Z,4.80
2022-10-10T08:52:24.809Z,5.00
2022-10-10T08:54:57.449Z,4.50
2022-10-10T08:57:26.321Z,4.60
2022-10-10T08:59:56.032Z,4.93
2022-10-10T09:02:55.291Z,4.70
2022-10-10T09:05:41.312Z,4.87
2022-10-10T09:08:12.374Z,4.30
2022-10-10T09:11:02.116Z,4.17
2022-10-10T09:13:28.812Z,4.77
2022-10-10T09:16:01.565Z,5.17
2022-10-10T09:18:53.019Z,4.40
2022-10-10T09:21:24.990Z,5.07
2022-10-10T09:24:03.469Z,4.23
2022-10-10T09:26:38.392Z,4.17
2022-10-10T09:29:23.240Z,4.40
2022-10-10T09:31:58.875Z,4.70
2022-10-10T09:34:55.451Z,4.80
2022-10-10T09:37:45.639Z,4.53
2022-10-10T09:40:27.749Z,4.20
2022-10-10T09:42:56.251Z,4.43
2022-10-10T09:45:32.240Z,4.63
2022-10-10T09:47:59.168Z,3.87
2022-10-10T09:50:26.158Z,4.47
2022-10-10T09:52:54.150Z,4.30
2022-10-10T09:55:29.838Z,4.40
2022-10-10T09:58:03.626Z,4.30
2022-10-10T10:00:36.645Z,4.50
2022-10-10T10:03:18.095Z,3.90
2022-10-10T10:05:54.264Z,4.00
2022-10-10T10:08:33.119Z,4.07
2022-10-10T10:11:01.510Z,4.00
2022-10-10T10:13:33.072Z,4.07
2022-10-10T10:16:05.682Z,4.10
2022-10-10T10:18:42.616Z,4.20
2022-10-10T10:21:19.394Z,3.67
2022-10-10T10:23:52.180Z,4.27
2022-10-10T10:26:53.775Z,4.37
2022-10-10T10:29:28.079Z,3.83
2022-10-10T10:32:05.254Z,4.00
2022-10-10T10:34:53.180Z,3.80
2022-10-10T10:37:37.819Z,3.90
2022-10-10T10:40:38.351Z,4.43
2022-10-10T10:43:17.200Z,3.70
2022-10-10T10:45:44.094Z,3.63
2022-10-10T10:48:29.689Z,3.83
2022-10-10T10:51:19.038Z,3.70
2022-10-10T10:53:54.622Z,3.30
2022-10-10T10:56:36.312Z,3.43
2022-10-10T11:02:50.722Z,3.27
2022-10-10T11:05:41.344Z,3.50
2022-10-10T11:08:26.967Z,3.33
2022-10-10T11:11:21.617Z,3.40
2022-10-10T11:14:27.251Z,2.90
2022-10-10T11:17:28.087Z,2.90
2022-10-10T11:20:08.277Z,2.70
2022-10-10T11:22:52.808Z,2.60
2022-10-10T11:25:31.893Z,2.50
2022-10-10T11:28:04.867Z,2.60
2022-10-10T11:30:35.198Z,2.50
2022-10-10T11:33:02.162Z,2.80
2022-10-10T11:35:37.309Z,2.47
2022-10-10T11:38:13.639Z,2.60
2022-10-10T11:41:08.711Z,2.57
2022-10-10T11:43:41.361Z,2.80
2022-10-10T11:46:35.676Z,2.53
2022-10-10T11:49:41.435Z,2.30
2022-10-10T11:52:34.985Z,2.20
2022-10-10T11:55:23.050Z,2.30
2022-10-10T11:58:07.911Z,2.10
2022-10-10T12:00:43.759Z,2.03
2022-10-10T12:03:11.131Z,2.10
2022-10-10T12:05:41.300Z,2.13
2022-10-10T12:08:24.612Z,2.27
2022-10-10T12:11:05.844Z,2.00
2022-10-10T12:13:48.384Z,2.33
2022-10-10T12:16:21.652Z,1.90
2022-10-10T12:19:07.874Z,2.10
2022-10-10T12:21:52.217Z,2.70
2022-10-10T12:24:19.310Z,2.27
2022-10-10T12:26:55.633Z,2.30
2022-10-10T12:29:42.995Z,2.13
2022-10-10T12:32:17.704Z,2.40
2022-10-10T12:34:50.509Z,2.30
2022-10-10T12:37:32.254Z,2.33
2022-10-10T12:40:08.668Z,2.70
2022-10-10T12:42:41.766Z,2.20
2022-10-10T12:45:30.524Z,2.27
2022-10-10T12:48:05.399Z,2.30
2022-10-10T12:50:40.515Z,2.47
2022-10-10T12:53:17.342Z,2.70
2022-10-10T12:56:01.866Z,2.20
2022-10-10T12:58:38.791Z,1.93
2022-10-10T13:01:09.111Z,2.23
2022-10-10T13:03:50.257Z,2.27
2022-10-10T13:06:41.442Z,2.20
2022-10-10T13:09:20.469Z,2.10
2022-10-10T13:12:07.421Z,2.10
2022-10-10T13:14:45.426Z,2.33
2022-10-10T13:17:29.511Z,2.10
2022-10-10T13:19:58.758Z,2.20
2022-10-10T13:22:26.942Z,2.23
2022-10-10T13:24:54.413Z,2.40
2022-10-10T13:27:29.522Z,2.10
2022-10-10T13:29:57.058Z,2.30
2022-10-10T13:32:27.542Z,2.53
2022-10-10T13:34:58.609Z,2.13
2022-10-10T13:37:26.801Z,2.27
2022-10-10T13:39:54.240Z,2.20
2022-10-10T13:42:26.386Z,2.23
2022-10-10T13:44:54.628Z,2.30
2022-10-10T13:47:50.790Z,2.00
2022-10-10T13:50:43.639Z,2.20
2022-10-10T13:53:31.620Z,2.10
2022-10-10T13:56:03.885Z,1.80
2022-10-10T13:58:33.813Z,2.03
2022-10-10T14:01:03.072Z,2.40
2022-10-10T14:03:31.974Z,1.90
2022-10-10T14:05:58.873Z,2.13
2022-10-10T14:08:28.261Z,2.37
2022-10-10T14:10:57.881Z,2.47
2022-10-10T14:13:25.589Z,2.10
2022-10-10T14:15:52.322Z,2.60
2022-10-10T14:18:21.938Z,2.13
2022-10-10T14:20:49.204Z,2.27
2022-10-10T14:23:15.909Z,2.50
2022-10-10T14:25:45.398Z,2.50
2022-10-10T14:28:20.812Z,2.47
2022-10-10T14:30:52.685Z,2.27
2022-10-10T14:33:20.292Z,2.43
2022-10-10T14:35:48.395Z,2.47
2022-10-10T14:38:15.626Z,2.50
2022-10-10T14:40:43.907Z,2.30
2022-10-10T14:43:13.237Z,2.40
2022-10-10T14:45:40.464Z,2.30
2022-10-10T14:48:07.422Z,2.30
2022-10-10T14:50:37.507Z,2.33
2022-10-10T14:53:04.733Z,2.37
2022-10-10T14:55:31.753Z,2.27
2022-10-10T14:57:58.453Z,2.50
2022-10-10T15:00:27.006Z,2.17
2022-10-10T15:02:59.879Z,2.20
2022-10-10T15:05:26.604Z,2.30
2022-10-10T15:11:45.843Z,2.20
2022-10-10T15:18:15.433Z,2.20
2022-10-10T15:25:49.936Z,1.97
2022-10-10T15:29:39.273Z,2.07
2022-10-10T15:35:12.766Z,2.20
2022-10-10T15:37:39.679Z,2.20
2022-10-10T15:40:06.770Z,2.43
2022-10-10T15:42:33.511Z,2.23
2022-10-10T15:45:02.735Z,1.87
2022-10-10T15:47:32.023Z,2.00
2022-10-10T15:49:59.231Z,2.10
2022-10-10T15:52:26.374Z,2.40
2022-10-10T15:54:53.524Z,1.83
2022-10-10T15:57:22.218Z,2.27
2022-10-10T15:59:49.308Z,2.20
2022-10-10T16:02:16.727Z,2.10
2022-10-10T16:04:43.887Z,2.20
2022-10-10T16:07:29.908Z,2.07
2022-10-10T16:09:58.842Z,2.37
2022-10-10T16:12:25.650Z,2.00
2022-10-10T16:14:52.344Z,2.13
2022-10-10T16:17:23.115Z,2.07
2022-10-10T16:19:50.792Z,2.00
2022-10-10T16:22:17.480Z,1.70
2022-10-10T16:24:53.948Z,2.20
2022-10-10T16:27:32.110Z,2.83
2022-10-10T16:29:58.852Z,2.20
2022-10-10T16:32:25.593Z,2.20
2022-10-10T16:34:52.252Z,2.30
2022-10-10T16:37:18.902Z,2.30
2022-10-10T16:39:45.554Z,2.57
2022-10-10T16:42:12.319Z,2.63
2022-10-10T16:44:38.992Z,2.57
2022-10-10T16:47:05.690Z,2.70
2022-10-10T16:49:32.526Z,2.70
2022-10-10T16:51:59.227Z,2.53
2022-10-10T16:54:25.896Z,2.50
2022-10-10T16:56:52.569Z,2.70
2022-10-10T16:59:19.195Z,2.83
2022-10-10T17:01:47.030Z,2.87
2022-10-10T17:04:13.717Z,3.10
2022-10-10T17:06:40.450Z,2.90
2022-10-10T17:09:08.023Z,3.00
2022-10-10T17:11:35.208Z,2.97
2022-10-10T17:14:01.955Z,2.90
2022-10-10T17:17:10.582Z,3.20
2022-10-10T17:19:16.882Z,3.17
2022-10-10T17:21:43.538Z,3.53
2022-10-10T17:24:10.232Z,3.50
2022-10-10T17:26:36.905Z,3.20
2022-10-10T17:29:03.636Z,3.40
2022-10-10T17:31:30.304Z,3.27
2022-10-10T17:33:57.594Z,3.47
2022-10-10T17:36:25.793Z,3.40
2022-10-10T17:38:52.864Z,3.83
2022-10-10T17:41:20.225Z,3.60
2022-10-10T17:43:46.940Z,3.50
2022-10-10T17:46:33.796Z,3.77
2022-10-10T17:49:02.286Z,3.90
2022-10-10T17:51:29.026Z,4.10
2022-10-10T17:53:55.658Z,3.67
2022-10-10T17:56:22.579Z,3.67
2022-10-10T17:58:50.611Z,3.77
2022-10-10T18:01:21.216Z,4.03
2022-10-10T18:03:48.743Z,3.90
2022-10-10T18:06:17.854Z,4.33
2022-10-10T18:08:47.280Z,4.13
2022-10-10T18:11:15.324Z,4.40
2022-10-10T18:13:41.971Z,4.20
2022-10-10T18:16:10.597Z,4.33
2022-10-10T18:18:38.357Z,4.37
2022-10-10T18:21:06.679Z,4.23
2022-10-10T18:23:33.569Z,4.23
2022-10-10T18:26:05.084Z,4.50
2022-10-10T18:28:33.801Z,4.40
2022-10-10T18:31:00.928Z,4.50
2022-10-10T18:33:27.868Z,2.80
2022-10-10T18:35:54.602Z,3.07
2022-10-10T18:38:21.580Z,2.60
2022-10-10T18:40:48.233Z,2.80
2022-10-10T18:43:17.470Z,2.40
2022-10-10T18:45:44.314Z,2.30
2022-10-10T18:48:10.970Z,2.20
2022-10-10T18:50:37.684Z,2.40
2022-10-10T18:53:04.345Z,2.10
2022-10-10T18:55:31.045Z,2.00
2022-10-10T18:57:57.911Z,2.17
2022-10-10T19:00:27.534Z,1.90
2022-10-10T19:02:54.223Z,2.03
2022-10-10T19:05:20.848Z,2.30
2022-10-10T19:07:47.673Z,1.60
2022-10-10T19:10:14.311Z,1.70
2022-10-10T19:12:45.159Z,1.73
2022-10-10T19:15:14.781Z,1.73
2022-10-10T19:17:41.441Z,1.77
2022-10-10T19:20:08.382Z,1.87
2022-10-10T19:22:35.073Z,2.07
2022-10-10T19:25:02.914Z,1.80
2022-10-10T19:27:29.597Z,2.10
2022-10-10T19:29:56.227Z,1.63
2022-10-10T19:32:22.895Z,2.00
2022-10-10T19:34:49.559Z,1.90
2022-10-10T19:37:16.467Z,1.90
2022-10-10T19:39:43.129Z,1.80
2022-10-10T19:42:09.787Z,1.80
2022-10-10T19:44:36.579Z,2.07
2022-10-10T19:47:03.281Z,2.00
2022-10-10T19:49:30.703Z,2.07
2022-10-10T19:51:57.540Z,1.80
2022-10-10T19:54:24.384Z,1.80
2022-10-10T19:56:51.056Z,2.33
2022-10-10T19:59:17.719Z,2.10
2022-10-10T20:01:44.497Z,2.13
2022-10-10T20:04:11.944Z,2.27
2022-10-10T20:06:41.147Z,2.40
2022-10-10T20:09:10.787Z,2.33
2022-10-10T20:11:38.800Z,2.17
2022-10-10T20:14:05.719Z,2.00
2022-10-10T20:16:32.514Z,2.17
2022-10-10T20:18:59.553Z,2.00
2022-10-10T20:21:32.336Z,1.90
2022-10-10T20:24:01.283Z,2.27
2022-10-10T20:26:30.943Z,2.10
2022-10-10T20:28:58.081Z,2.13
2022-10-10T20:31:27.375Z,2.30
2022-10-10T20:33:55.577Z,2.57
2022-10-10T20:36:23.305Z,2.33
2022-10-10T20:39:01.396Z,2.27
2022-10-10T20:41:30.586Z,2.40
2022-10-10T20:43:58.897Z,2.40
2022-10-10T20:46:27.448Z,2.23
2022-10-10T20:48:55.012Z,2.03
2022-10-10T20:51:21.692Z,2.60
2022-10-10T20:53:56.753Z,2.00
2022-10-10T20:56:24.112Z,2.40
2022-10-10T20:58:50.843Z,1.90
2022-10-10T21:01:19.867Z,2.13
2022-10-10T21:03:47.380Z,2.17
2022-10-10T21:06:25.223Z,2.00
2022-10-10T21:08:53.108Z,2.00
2022-10-10T21:11:23.428Z,2.03
2022-10-10T21:13:55.801Z,2.23
2022-10-10T21:16:24.921Z,2.10
2022-10-10T21:18:57.483Z,2.00
2022-10-10T21:21:25.183Z,2.00
2022-10-10T21:23:55.822Z,2.20
2022-10-10T21:26:24.341Z,1.90
2022-10-10T21:28:51.481Z,2.00
2022-10-10T21:31:21.303Z,2.03
2022-10-10T21:33:48.243Z,1.70
2022-10-10T21:36:16.100Z,2.13
2022-10-10T21:38:43.392Z,2.13
2022-10-10T21:41:12.502Z,2.10
2022-10-10T21:43:40.877Z,1.97
2022-10-10T21:46:14.103Z,2.07
2022-10-10T21:48:40.773Z,1.90
2022-10-10T21:51:07.627Z,2.10
2022-10-10T21:53:34.401Z,1.93
2022-10-10T21:56:05.108Z,2.00
2022-10-10T21:58:34.770Z,2.10
2022-10-10T22:01:11.620Z,1.80
2022-10-10T22:03:39.011Z,2.00
2022-10-10T22:06:07.953Z,2.00
2022-10-10T22:08:35.924Z,2.20
2022-10-10T22:11:09.833Z,1.90
2022-10-10T22:13:36.688Z,2.13
2022-10-10T22:16:04.084Z,1.90
2022-10-10T22:18:31.246Z,1.87
2022-10-10T22:20:57.990Z,1.90
2022-10-10T22:23:24.898Z,2.10
2022-10-10T22:25:52.407Z,1.90
2022-10-10T22:28:19.775Z,2.10
2022-10-10T22:30:46.777Z,2.07
2022-10-10T22:33:13.650Z,2.03
2022-10-10T22:35:40.607Z,2.30
2022-10-10T22:38:07.356Z,2.17
2022-10-10T22:40:34.495Z,2.30
2022-10-10T22:43:01.375Z,2.30
2022-10-10T22:45:29.221Z,2.40
2022-10-10T22:47:56.071Z,2.40
2022-10-10T22:50:22.762Z,2.20
2022-10-10T22:52:49.435Z,2.47
2022-10-10T22:55:18.767Z,2.30
2022-10-10T22:57:46.179Z,2.70
2022-10-10T23:00:13.776Z,2.50
2022-10-10T23:02:40.529Z,2.40
2022-10-10T23:05:07.920Z,2.80
2022-10-10T23:07:34.646Z,2.90
2022-10-10T23:10:01.306Z,2.70
2022-10-10T23:12:28.200Z,2.73
2022-10-10T23:14:54.972Z,2.60
2022-10-10T23:17:21.674Z,2.60
2022-10-10T23:19:48.297Z,2.63
2022-10-10T23:22:14.969Z,2.93
2022-10-10T23:24:42.103Z,3.00
2022-10-10T23:27:08.741Z,2.77
2022-10-10T23:29:35.542Z,2.97
2022-10-10T23:32:02.193Z,2.90
2022-10-10T23:34:28.830Z,2.67
2022-10-10T23:36:55.645Z,2.70
2022-10-10T23:39:22.420Z,2.80
2022-10-10T23:41:49.109Z,2.70
2022-10-10T23:44:15.734Z,2.73
2022-10-10T23:46:42.455Z,2.33
2022-10-10T23:49:09.909Z,2.70
2022-10-10T23:51:36.639Z,2.67
2022-10-10T23:54:03.374Z,2.60
2022-10-10T23:56:30.032Z,2.40
2022-10-10T23:58:56.676Z,2.33
